Time;durP1;ratioP1;P1;durP2;ratioP2;P2;SDS_P1;SDS_P2;PMS_P1;PMS_P2;Temp;Humidity;BMP_temperature;BMP_pressure;BME280_temperature;BME280_humidity;BME280_pressure;Samples;Min_cycle;Max_cycle;Signal;HPM_P1;HPM_P2
2022/08/23 00:06:55;;;;;;;3.28;1.50;;;25.20;85.90;;;;;;21015712;28;20208;-76
2022/08/23 00:16:58;;;;;;;3.90;1.65;;;24.80;85.70;;;;;;21128456;28;20223;-76
2022/08/23 00:27:06;;;;;;;3.35;1.77;;;;;;;;;;21139615;28;20275;-76
2022/08/23 00:37:09;;;;;;;5.47;2.10;;;24.70;79.40;;;;;;21149390;28;20697;-75
2022/08/23 00:57:36;;;;;;;5.82;2.15;;;;;;;;;;21142849;28;20232;-76
2022/08/23 01:07:47;;;;;;;4.05;1.92;;;;;;;;;;21125635;28;20215;-75
2022/08/23 01:18:01;;;;;;;3.55;1.63;;;;;;;;;;21149598;28;20221;-76
2022/08/23 01:28:03;;;;;;;4.10;1.63;;;;;;;;;;21078780;28;20265;-76
2022/08/23 01:38:06;;;;;;;2.67;1.17;;;;;;;;;;21061554;28;20211;-74
2022/08/23 01:48:09;;;;;;;2.28;1.20;;;;;;;;;;21143293;28;20234;-76
2022/08/23 01:58:11;;;;;;;2.45;1.13;;;;;;;;;;21144456;28;20223;-76
2022/08/23 02:18:35;;;;;;;2.92;1.85;;;;;;;;;;21142403;28;20219;-76
2022/08/23 02:28:37;;;;;;;5.10;2.53;;;;;;;;;;21158647;28;20207;-76
2022/08/23 02:38:39;;;;;;;7.43;3.63;;;;;;;;;;21140103;28;20288;-76
2022/08/23 02:48:41;;;;;;;8.60;4.13;;;;;;;;;;21157889;28;20227;-76
2022/08/23 02:58:46;;;;;;;9.15;5.07;;;;;;;;;;21139234;28;20223;-76
2022/08/23 03:08:53;;;;;;;15.75;8.00;;;;;;;;;;21155727;28;20624;-76
2022/08/23 03:18:55;;;;;;;11.70;5.82;;;;;;;;;;21154084;28;20245;-76
2022/08/23 03:28:57;;;;;;;15.48;6.38;;;;;;;;;;21154066;28;20270;-76
2022/08/23 03:39:04;;;;;;;12.32;6.03;;;;;;;;;;21136568;28;20195;-76
2022/08/23 03:49:06;;;;;;;9.25;5.30;;;;;;;;;;21079290;28;20230;-76
2022/08/23 03:59:18;;;;;;;11.98;5.25;;;;;;;;;;21099707;22;20228;-76
2022/08/23 04:09:20;;;;;;;11.23;5.65;;;;;;;;;;21151422;28;20622;-76
2022/08/23 04:19:23;;;;;;;11.98;5.80;;;;;;;;;;21150660;28;20208;-76
2022/08/23 04:29:36;;;;;;;10.00;4.75;;;;;;;;;;21098956;28;20225;-75
2022/08/23 04:50:03;;;;;;;8.02;4.07;;;;;;;;;;20980814;28;20258;-76
2022/08/23 05:00:06;;;;;;;8.25;3.88;;;;;;;;;;20994941;28;20279;-76
2022/08/23 05:10:13;;;;;;;9.00;5.05;;;22.40;94.30;;;;;;21013900;28;20605;-76
2022/08/23 05:20:17;;;;;;;11.23;4.85;;;;;;;;;;21113524;28;20539;-72
2022/08/23 05:30:19;;;;;;;9.80;3.47;;;;;;;;;;21105391;28;20222;-71
2022/08/23 05:40:22;;;;;;;5.35;2.75;;;;;;;;;;21099222;28;20241;-72
2022/08/23 05:50:37;;;;;;;3.50;1.90;;;;;;;;;;21105370;28;20692;-72
2022/08/23 06:00:39;;;;;;;4.15;2.05;;;;;;;;;;21111050;28;20294;-72
2022/08/23 06:10:41;;;;;;;3.38;1.52;;;;;;;;;;21095196;28;20227;-73
2022/08/23 06:21:04;;;;;;;1.45;0.90;;;;;;;;;;21033012;28;20209;-72
2022/08/23 06:31:44;;;;;;;1.40;0.70;;;;;;;;;;21107359;28;20698;-72
2022/08/23 06:41:41;;;;;;;2.70;0.50;;;;;;;;;;21071636;28;20194;-72
2022/08/23 06:52:05;;;;;;;1.23;0.70;;;;;;;;;;21090394;28;20295;-71
2022/08/23 07:02:26;;;;;;;1.58;0.63;;;;;;;;;;21106300;28;20663;-72
2022/08/23 07:12:31;;;;;;;1.27;0.90;;;;;;;;;;21134434;28;20284;-72
2022/08/23 07:22:33;;;;;;;1.92;0.68;;;;;;;;;;21110618;28;20222;-72
2022/08/23 07:32:35;;;;;;;0.85;0.70;;;;;;;;;;20977776;28;20219;-74
2022/08/23 07:42:57;;;;;;;0.88;0.50;;;;;;;;;;20989505;28;20206;-74
2022/08/23 07:53:01;;;;;;;1.38;0.70;;;;;;;;;;21022735;28;20710;-75
2022/08/23 08:03:03;;;;;;;0.77;0.60;;;24.30;86.10;;;;;;21024684;28;20222;-74
2022/08/23 08:13:19;;;;;;;2.63;1.00;;;;;;;;;;21054133;28;20252;-76
2022/08/23 08:23:21;;;;;;;1.10;0.70;;;;;;;;;;21138902;28;20266;-74
2022/08/23 08:33:51;;;;;;;1.65;0.90;;;;;;;;;;21093078;28;20231;-73
2022/08/23 08:44:03;;;;;;;0.90;0.63;;;;;;;;;;21085180;28;20679;-73
2022/08/23 08:54:08;;;;;;;3.67;0.80;;;;;;;;;;21080697;28;20218;-73
2022/08/23 09:04:14;;;;;;;2.42;1.00;;;;;;;;;;21061911;28;20233;-73
2022/08/23 09:14:18;;;;;;;1.27;0.88;;;;;;;;;;21081607;28;20230;-73
2022/08/23 09:24:21;;;;;;;2.88;1.25;;;;;;;;;;21036630;28;20606;-74
2022/08/23 09:34:41;;;;;;;1.48;0.80;;;26.30;88.10;;;;;;21005104;28;20214;-73
2022/08/23 09:44:48;;;;;;;2.47;0.95;;;;;;;;;;21070053;28;20212;-73
2022/08/23 09:54:57;;;;;;;1.90;0.93;;;;;;;;;;21016157;22;20227;-75
2022/08/23 10:05:03;;;;;;;1.35;0.68;;;26.80;86.00;;;;;;20994614;28;20207;-77
2022/08/23 10:15:08;;;;;;;1.90;1.20;;;;;;;;;;21007609;28;20646;-75
2022/08/23 10:25:11;;;;;;;2.17;0.70;;;;;;;;;;20960718;28;20662;-73
2022/08/23 10:35:28;;;;;;;2.00;0.80;;;;;;;;;;20969876;28;20207;-73
2022/08/23 10:45:29;;;;;;;1.70;1.00;;;;;;;;;;20975027;28;20280;-73
2022/08/23 10:55:53;;;;;;;1.70;0.70;;;;;;;;;;20957896;28;20223;-73
2022/08/23 11:06:24;;;;;;;1.17;0.70;;;28.30;68.20;;;;;;20958112;28;20215;-71
2022/08/23 11:16:29;;;;;;;2.00;1.08;;;;;;;;;;20965809;28;20219;-71
2022/08/23 11:26:40;;;;;;;1.90;0.85;;;;;;;;;;20980709;28;20219;-74
2022/08/23 11:37:03;;;;;;;1.60;1.00;;;;;;;;;;20972171;28;20215;-71
2022/08/23 11:47:09;;;;;;;1.63;0.80;;;29.20;82.60;;;;;;20966530;28;20261;-73
2022/08/23 11:57:14;;;;;;;1.70;0.80;;;;;;;;;;20962634;28;20761;-73
2022/08/23 12:07:43;;;;;;;1.38;0.80;;;29.70;76.30;;;;;;20986876;28;20216;-74
2022/08/23 12:17:45;;;;;;;3.22;0.70;;;;;;;;;;20943576;28;20221;-76
2022/08/23 12:27:47;;;;;;;1.15;0.70;;;;;;;;;;20957899;28;20217;-73
2022/08/23 12:37:55;;;;;;;0.93;0.65;;;30.00;66.40;;;;;;21003927;28;20227;-75
2022/08/23 12:47:59;;;;;;;1.20;0.57;;;;;;;;;;21019527;28;20223;-74
2022/08/23 12:58:03;;;;;;;1.48;0.85;;;30.60;66.90;;;;;;21025864;28;20221;-72
2022/08/23 13:08:11;;;;;;;1.55;0.80;;;;;;;;;;20992125;28;20222;-71
2022/08/23 13:18:45;;;;;;;1.48;0.80;;;;;;;;;;20987576;28;20221;-73
2022/08/23 13:29:00;;;;;;;1.83;0.80;;;31.10;71.10;;;;;;20937327;28;20221;-72
2022/08/23 13:39:04;;;;;;;1.10;0.60;;;;;;;;;;20985259;28;20705;-72
2022/08/23 13:49:11;;;;;;;1.13;0.70;;;;;;;;;;21010657;28;20212;-72
2022/08/23 13:59:28;;;;;;;0.85;0.60;;;31.20;66.40;;;;;;21037093;28;20259;-72
2022/08/23 14:09:32;;;;;;;2.85;0.80;;;;;;;;;;20984858;28;20259;-71
2022/08/23 14:19:34;;;;;;;1.02;0.70;;;;;;;;;;20957549;28;20700;-71
2022/08/23 14:29:36;;;;;;;1.15;0.60;;;;;;;;;;20957088;28;20245;-71
2022/08/23 14:39:38;;;;;;;1.60;0.80;;;;;;;;;;20936245;28;20233;-71
2022/08/23 14:49:39;;;;;;;1.60;0.80;;;;;;;;;;20983736;28;20263;-70
2022/08/23 14:59:41;;;;;;;1.00;0.65;;;;;;;;;;20964694;28;20523;-70
2022/08/23 15:09:43;;;;;;;0.85;0.57;;;;;;;;;;20974717;28;20629;-70
2022/08/23 15:19:45;;;;;;;1.58;0.70;;;;;;;;;;20967566;28;20208;-72
2022/08/23 15:29:46;;;;;;;1.20;0.70;;;;;;;;;;21021036;28;20350;-71
2022/08/23 15:39:49;;;;;;;1.20;0.60;;;;;;;;;;20997586;28;20220;-73
2022/08/23 15:49:51;;;;;;;3.17;0.70;;;;;;;;;;21041977;28;20200;-75
2022/08/23 15:59:53;;;;;;;1.98;0.90;;;31.60;70.10;;;;;;21057826;28;20748;-71
2022/08/23 16:09:58;;;;;;;2.58;0.70;;;;;;;;;;20990386;28;20259;-71
2022/08/23 16:20:00;;;;;;;0.90;0.63;;;;;;;;;;20947089;28;20233;-73
2022/08/23 16:30:02;;;;;;;1.70;0.80;;;;;;;;;;20967361;28;20249;-71
2022/08/23 16:40:06;;;;;;;1.00;0.60;;;;;;;;;;20993161;28;20456;-71
2022/08/23 16:50:08;;;;;;;0.93;0.60;;;30.10;70.60;;;;;;20987362;28;20281;-71
2022/08/23 17:00:12;;;;;;;1.10;0.70;;;;;;;;;;21005158;28;20221;-73
2022/08/23 17:10:15;;;;;;;0.75;0.50;;;;;;;;;;21021958;28;20289;-72
2022/08/23 17:20:17;;;;;;;0.93;0.65;;;;;;;;;;21016863;28;20282;-73
2022/08/23 17:30:21;;;;;;;1.02;0.57;;;;;;;;;;20964580;28;20217;-71
2022/08/23 17:40:25;;;;;;;1.23;0.50;;;;;;;;;;20955300;28;20639;-75
2022/08/23 17:50:27;;;;;;;1.30;0.57;;;;;;;;;;20955428;28;20264;-76
2022/08/23 18:00:30;;;;;;;1.30;0.73;;;;;;;;;;20969209;28;20236;-75
2022/08/23 18:10:32;;;;;;;1.23;0.60;;;;;;;;;;20927833;28;20289;-76
2022/08/23 18:20:34;;;;;;;3.67;0.82;;;;;;;;;;20899737;28;20265;-74
2022/08/23 18:30:56;;;;;;;1.13;0.63;;;;;;;;;;20868698;28;20221;-76
2022/08/23 18:40:58;;;;;;;0.90;0.60;;;;;;;;;;20969158;28;20252;-75
2022/08/23 18:51:00;;;;;;;4.47;0.90;;;;;;;;;;20995680;28;20356;-75
2022/08/23 19:01:02;;;;;;;2.47;0.77;;;;;;;;;;20973988;28;20753;-74
2022/08/23 19:11:04;;;;;;;2.90;0.95;;;;;;;;;;20999774;28;20274;-75
2022/08/23 19:21:06;;;;;;;2.78;0.80;;;;;;;;;;21001934;28;20285;-75
2022/08/23 19:31:08;;;;;;;1.65;0.63;;;;;;;;;;20992158;28;20224;-75
2022/08/23 19:41:10;;;;;;;2.67;0.77;;;;;;;;;;20987636;28;20292;-75
2022/08/23 19:51:13;;;;;;;2.00;0.93;;;;;;;;;;20967876;28;20243;-75
2022/08/23 20:01:15;;;;;;;2.90;1.05;;;;;;;;;;20983548;28;20297;-75
2022/08/23 20:11:17;;;;;;;2.33;0.95;;;;;;;;;;20937285;28;20286;-75
2022/08/23 20:21:19;;;;;;;5.10;1.23;;;;;;;;;;20945549;28;20221;-76
2022/08/23 20:31:22;;;;;;;3.85;1.20;;;;;;;;;;20860938;28;20220;-75
2022/08/23 20:41:26;;;;;;;2.38;0.93;;;27.70;80.40;;;;;;20975335;28;20213;-76
2022/08/23 20:51:28;;;;;;;2.45;0.90;;;;;;;;;;20875525;28;20378;-76
2022/08/23 21:01:30;;;;;;;1.80;0.88;;;;;;;;;;20894515;28;20227;-76
2022/08/23 21:11:32;;;;;;;1.70;0.90;;;;;;;;;;20875959;28;20661;-75
2022/08/23 21:21:33;;;;;;;1.85;0.88;;;;;;;;;;20954677;28;20293;-74
2022/08/23 21:31:35;;;;;;;1.55;0.70;;;;;;;;;;20985162;28;20250;-75
2022/08/23 21:41:38;;;;;;;1.60;0.82;;;;;;;;;;20967369;28;20288;-76
2022/08/23 21:51:41;;;;;;;1.63;0.80;;;26.70;82.50;;;;;;20991859;28;20243;-76
2022/08/23 22:01:43;;;;;;;1.38;0.80;;;;;;;;;;20975811;28;20269;-75
2022/08/23 22:11:46;;;;;;;1.80;0.90;;;;;;;;;;20972725;28;20227;-75
2022/08/23 22:21:50;;;;;;;3.38;1.33;;;;;;;;;;20990056;28;20225;-73
2022/08/23 22:31:51;;;;;;;4.80;1.20;;;;;;;;;;21039685;22;20284;-74
2022/08/23 22:41:54;;;;;;;5.18;1.13;;;;;;;;;;21023688;28;20204;-74
2022/08/23 22:51:56;;;;;;;2.58;1.10;;;;;;;;;;20908281;28;20702;-74
2022/08/23 23:01:57;;;;;;;5.20;1.13;;;;;;;;;;20906814;28;20245;-73
2022/08/23 23:11:59;;;;;;;1.88;1.00;;;;;;;;;;20904768;28;20217;-74
2022/08/23 23:22:01;;;;;;;1.92;1.13;;;;;;;;;;20958127;28;20267;-74
2022/08/23 23:32:03;;;;;;;2.08;0.90;;;;;;;;;;21061651;28;20237;-74
2022/08/23 23:42:04;;;;;;;1.80;0.82;;;;;;;;;;21069563;28;20493;-74
2022/08/23 23:52:06;;;;;;;2.65;1.10;;;;;;;;;;21070296;28;20215;-74
